createdAt,value
2017-03-03T00:00:46.525Z,1010.84
2017-03-03T00:01:55.403Z,1010.85
2017-03-03T00:03:04.299Z,1010.88
2017-03-03T00:04:13.624Z,1010.87
2017-03-03T00:05:22.528Z,1010.89
2017-03-03T00:06:31.422Z,1010.9
2017-03-03T00:07:40.315Z,1010.88
2017-03-03T00:08:49.199Z,1010.92
2017-03-03T00:09:58.084Z,1010.95
2017-03-03T00:11:07.001Z,1010.95
2017-03-03T00:12:15.900Z,1010.97
2017-03-03T00:13:25.202Z,1010.98
2017-03-03T00:14:34.094Z,1010.96
2017-03-03T00:15:43.001Z,1011.03
2017-03-03T00:16:51.892Z,1011.02
2017-03-03T00:18:00.817Z,1011.01
2017-03-03T00:19:09.700Z,1011.14
2017-03-03T00:20:18.605Z,1011.1
2017-03-03T00:21:27.507Z,1011.06
2017-03-03T00:22:36.392Z,1011.14
2017-03-03T00:23:45.275Z,1011.16
2017-03-03T00:24:54.475Z,1011.21
2017-03-03T00:26:03.394Z,1011.18
2017-03-03T00:27:12.317Z,1011.13
2017-03-03T00:28:21.397Z,1011.16
2017-03-03T00:29:31.060Z,1011.17
2017-03-03T00:30:39.952Z,1011.2
2017-03-03T00:31:48.870Z,1011.21
2017-03-03T00:32:57.772Z,1011.19
2017-03-03T00:34:07.487Z,1011.23
2017-03-03T00:35:16.403Z,1011.23
2017-03-03T00:36:25.321Z,1011.22
2017-03-03T00:37:34.217Z,1011.25
2017-03-03T00:38:43.112Z,1011.25
2017-03-03T00:39:52.003Z,1011.24
2017-03-03T00:41:00.920Z,1011.31
2017-03-03T00:42:09.806Z,1011.26
2017-03-03T00:43:18.688Z,1011.3
2017-03-03T00:44:27.598Z,1011.26
2017-03-03T00:45:36.494Z,1011.32
2017-03-03T00:46:45.393Z,1011.4
2017-03-03T00:47:54.289Z,1011.35
2017-03-03T00:49:03.196Z,1011.36
2017-03-03T00:50:12.071Z,1011.37
2017-03-03T00:51:20.957Z,1011.35
2017-03-03T00:52:29.834Z,1011.34
2017-03-03T00:53:38.713Z,1011.33
2017-03-03T00:54:47.616Z,1011.38
2017-03-03T00:55:56.512Z,1011.34
2017-03-03T00:57:05.399Z,1011.36
2017-03-03T00:58:14.301Z,1011.38
2017-03-03T00:59:23.194Z,1011.35
2017-03-03T01:00:32.103Z,1011.31
2017-03-03T01:01:41.395Z,1011.35
2017-03-03T01:02:50.290Z,1011.4
2017-03-03T01:03:59.174Z,1011.42
2017-03-03T01:05:08.056Z,1011.37
2017-03-03T01:06:16.945Z,1011.41
2017-03-03T01:07:25.848Z,1011.38
2017-03-03T01:08:35.170Z,1011.32
2017-03-03T01:09:44.041Z,1011.38
2017-03-03T01:10:52.945Z,1011.38
2017-03-03T01:12:01.849Z,1011.42
2017-03-03T01:13:11.159Z,1011.39
2017-03-03T01:14:20.046Z,1011.45
2017-03-03T01:15:28.960Z,1011.42
2017-03-03T01:16:37.857Z,1011.39
2017-03-03T01:17:46.735Z,1011.41
2017-03-03T01:18:55.623Z,1011.4
2017-03-03T01:20:10.784Z,1011.37
2017-03-03T01:21:19.679Z,1011.39
2017-03-03T01:22:28.578Z,1011.45
2017-03-03T01:23:37.478Z,1011.45
2017-03-03T01:24:46.379Z,1011.42
2017-03-03T01:25:55.282Z,1011.45
2017-03-03T01:27:04.169Z,1011.47
2017-03-03T01:28:13.077Z,1011.47
2017-03-03T01:29:21.960Z,1011.46
2017-03-03T01:30:30.858Z,1011.55
2017-03-03T01:31:39.768Z,1011.5
2017-03-03T01:32:48.648Z,1011.58
2017-03-03T01:33:57.522Z,1011.58
2017-03-03T01:35:06.437Z,1011.53
2017-03-03T01:36:15.752Z,1011.56
2017-03-03T01:37:24.649Z,1011.52
2017-03-03T01:38:33.534Z,1011.5
2017-03-03T01:39:42.420Z,1011.55
2017-03-03T01:40:51.312Z,1011.53
2017-03-03T01:42:00.190Z,1011.61
2017-03-03T01:43:09.103Z,1011.6
2017-03-03T01:44:18.023Z,1011.62
2017-03-03T01:45:26.935Z,1011.61
2017-03-03T01:46:35.811Z,1011.61
2017-03-03T01:47:44.710Z,1011.61
2017-03-03T01:48:53.600Z,1011.63
2017-03-03T01:50:02.484Z,1011.64
2017-03-03T01:51:11.356Z,1011.62
2017-03-03T01:52:20.236Z,1011.64
2017-03-03T01:53:29.130Z,1011.65
2017-03-03T01:54:38.012Z,1011.66
2017-03-03T01:55:46.933Z,1011.68
2017-03-03T01:56:55.823Z,1011.7
2017-03-03T01:58:04.750Z,1011.67
2017-03-03T01:59:13.671Z,1011.61
2017-03-03T02:00:22.553Z,1011.64
2017-03-03T02:01:31.451Z,1011.64
2017-03-03T02:02:40.353Z,1011.66
2017-03-03T02:03:49.231Z,1011.69
2017-03-03T02:04:58.618Z,1011.67
2017-03-03T02:06:07.935Z,1011.65
2017-03-03T02:07:17.243Z,1011.65
2017-03-03T02:08:26.127Z,1011.66
2017-03-03T02:09:35.001Z,1011.67
2017-03-03T02:10:43.893Z,1011.65
2017-03-03T02:11:52.791Z,1011.63
2017-03-03T02:13:02.074Z,1011.67
2017-03-03T02:14:10.989Z,1011.65
2017-03-03T02:15:19.875Z,1011.67
2017-03-03T02:16:28.752Z,1011.65
2017-03-03T02:17:37.622Z,1011.66
2017-03-03T02:18:46.507Z,1011.68
2017-03-03T02:19:55.398Z,1011.65
2017-03-03T02:21:04.285Z,1011.64
2017-03-03T02:22:13.185Z,1011.62
2017-03-03T02:23:22.071Z,1011.66
2017-03-03T02:24:30.989Z,1011.6
2017-03-03T02:25:40.285Z,1011.61
2017-03-03T02:26:49.185Z,1011.62
2017-03-03T02:27:58.088Z,1011.64
2017-03-03T02:29:06.970Z,1011.6
2017-03-03T02:30:15.851Z,1011.61
2017-03-03T02:31:25.161Z,1011.66
2017-03-03T02:32:34.093Z,1011.61
2017-03-03T02:33:42.986Z,1011.58
2017-03-03T02:34:51.904Z,1011.57
2017-03-03T02:36:00.812Z,1011.56
2017-03-03T02:37:09.706Z,1011.6
2017-03-03T02:38:18.602Z,1011.59
2017-03-03T02:39:27.503Z,1011.62
2017-03-03T02:40:36.393Z,1011.62
2017-03-03T02:41:45.278Z,1011.58
2017-03-03T02:42:54.194Z,1011.57
2017-03-03T02:44:03.076Z,1011.59
2017-03-03T02:45:11.962Z,1011.59
2017-03-03T02:46:20.850Z,1011.56
2017-03-03T02:47:29.787Z,1011.53
2017-03-03T02:48:38.672Z,1011.5
2017-03-03T02:49:47.989Z,1011.54
2017-03-03T02:50:56.872Z,1011.54
2017-03-03T02:52:05.786Z,1011.52
2017-03-03T02:53:14.680Z,1011.52
2017-03-03T02:54:23.597Z,1011.51
2017-03-03T02:55:32.494Z,1011.47
2017-03-03T02:56:41.368Z,1011.53
2017-03-03T02:57:50.650Z,1011.51
2017-03-03T02:58:59.532Z,1011.58
2017-03-03T03:00:08.426Z,1011.57
2017-03-03T03:01:17.322Z,1011.6
2017-03-03T03:02:26.224Z,1011.62
2017-03-03T03:03:35.117Z,1011.67
2017-03-03T03:04:43.997Z,1011.7
2017-03-03T03:05:52.885Z,1011.71
2017-03-03T03:07:01.779Z,1011.75
2017-03-03T03:08:10.684Z,1011.73
2017-03-03T03:09:19.580Z,1011.76
2017-03-03T03:10:28.484Z,1011.76
2017-03-03T03:11:37.363Z,1011.77
2017-03-03T03:12:46.241Z,1011.77
2017-03-03T03:13:55.127Z,1011.77
2017-03-03T03:15:04.032Z,1011.81
2017-03-03T03:16:13.342Z,1011.78
2017-03-03T03:17:22.225Z,1011.76
2017-03-03T03:18:31.111Z,1011.81
2017-03-03T03:19:39.995Z,1011.74
2017-03-03T03:20:48.888Z,1011.69
2017-03-03T03:21:57.795Z,1011.72
2017-03-03T03:23:06.677Z,1011.72
2017-03-03T03:24:15.981Z,1011.69
2017-03-03T03:25:24.862Z,1011.67
2017-03-03T03:26:33.772Z,1011.73
2017-03-03T03:27:42.699Z,1011.69
2017-03-03T03:28:51.581Z,1011.71
2017-03-03T03:30:00.456Z,1011.75
2017-03-03T03:31:09.344Z,1011.71
2017-03-03T03:32:18.237Z,1011.71
2017-03-03T03:33:27.518Z,1011.72
2017-03-03T03:34:36.428Z,1011.71
2017-03-03T03:35:45.368Z,1011.68
2017-03-03T03:36:54.279Z,1011.69
2017-03-03T03:38:03.591Z,1011.72
2017-03-03T03:39:12.498Z,1011.71
2017-03-03T03:40:21.411Z,1011.7
2017-03-03T03:41:30.322Z,1011.7
2017-03-03T03:42:39.211Z,1011.7
2017-03-03T03:43:48.162Z,1011.7
2017-03-03T03:44:57.053Z,1011.74
2017-03-03T03:46:05.941Z,1011.74
2017-03-03T03:47:14.825Z,1011.75
2017-03-03T03:48:23.704Z,1011.7
2017-03-03T03:49:32.604Z,1011.67
2017-03-03T03:50:41.496Z,1011.74
2017-03-03T03:51:50.577Z,1011.72
2017-03-03T03:52:59.484Z,1011.69
2017-03-03T03:54:08.372Z,1011.64
2017-03-03T03:55:17.286Z,1011.61
2017-03-03T03:56:26.179Z,1011.6
2017-03-03T03:57:35.087Z,1011.61
2017-03-03T03:58:43.989Z,1011.62
2017-03-03T03:59:52.871Z,1011.65
2017-03-03T04:01:01.766Z,1011.66
2017-03-03T04:02:10.676Z,1011.61
2017-03-03T04:03:19.623Z,1011.64
2017-03-03T04:04:28.530Z,1011.63
2017-03-03T04:05:37.472Z,1011.59
2017-03-03T04:06:46.395Z,1011.55
2017-03-03T04:07:55.283Z,1011.62
2017-03-03T04:09:04.167Z,1011.62
2017-03-03T04:10:13.060Z,1011.62
2017-03-03T04:11:21.943Z,1011.67
2017-03-03T04:12:30.884Z,1011.67
2017-03-03T04:13:39.789Z,1011.62
2017-03-03T04:14:48.677Z,1011.64
2017-03-03T04:15:57.604Z,1011.57
2017-03-03T04:17:06.915Z,1011.57
2017-03-03T04:18:15.813Z,1011.58
2017-03-03T04:19:24.700Z,1011.58
2017-03-03T04:20:33.587Z,1011.55
2017-03-03T04:21:42.498Z,1011.55
2017-03-03T04:22:51.374Z,1011.51
2017-03-03T04:24:00.258Z,1011.56
2017-03-03T04:25:09.151Z,1011.5
2017-03-03T04:26:18.033Z,1011.49
2017-03-03T04:27:26.913Z,1011.47
2017-03-03T04:28:35.809Z,1011.45
2017-03-03T04:29:44.711Z,1011.41
2017-03-03T04:30:53.603Z,1011.38
2017-03-03T04:32:02.525Z,1011.39
2017-03-03T04:33:11.436Z,1011.38
2017-03-03T04:34:20.359Z,1011.38
2017-03-03T04:35:29.247Z,1011.4
2017-03-03T04:36:38.150Z,1011.4
2017-03-03T04:37:47.034Z,1011.4
2017-03-03T04:38:55.957Z,1011.43
2017-03-03T04:40:05.237Z,1011.44
2017-03-03T04:41:14.172Z,1011.48
2017-03-03T04:42:23.100Z,1011.51
2017-03-03T04:43:31.979Z,1011.52
2017-03-03T04:44:40.857Z,1011.54
2017-03-03T04:45:50.150Z,1011.48
2017-03-03T04:46:59.059Z,1011.49
2017-03-03T04:48:08.350Z,1011.49
2017-03-03T04:49:17.229Z,1011.44
2017-03-03T04:50:26.133Z,1011.47
2017-03-03T04:51:35.023Z,1011.43
2017-03-03T04:52:43.901Z,1011.44
2017-03-03T04:53:52.783Z,1011.43
2017-03-03T04:55:01.681Z,1011.42
2017-03-03T04:56:10.564Z,1011.46
2017-03-03T04:57:19.443Z,1011.39
2017-03-03T04:58:28.329Z,1011.38
2017-03-03T04:59:37.257Z,1011.42
2017-03-03T05:00:46.160Z,1011.42
2017-03-03T05:01:55.041Z,1011.45
2017-03-03T05:03:03.974Z,1011.43
2017-03-03T05:04:12.853Z,1011.44
2017-03-03T05:05:21.750Z,1011.49
2017-03-03T05:06:30.655Z,1011.5
2017-03-03T05:07:39.543Z,1011.48
2017-03-03T05:08:48.499Z,1011.43
2017-03-03T05:09:57.418Z,1011.42
2017-03-03T05:11:06.291Z,1011.41
2017-03-03T05:12:15.172Z,1011.35
2017-03-03T05:13:24.053Z,1011.33
2017-03-03T05:14:32.957Z,1011.3
2017-03-03T05:15:41.883Z,1011.3
2017-03-03T05:16:50.779Z,1011.28
2017-03-03T05:17:59.681Z,1011.28
2017-03-03T05:19:08.586Z,1011.26
2017-03-03T05:20:17.465Z,1011.3
2017-03-03T05:21:26.342Z,1011.28
2017-03-03T05:22:35.620Z,1011.27
2017-03-03T05:23:44.503Z,1011.23
2017-03-03T05:24:53.588Z,1011.24
2017-03-03T05:26:02.494Z,1011.27
2017-03-03T05:27:11.421Z,1011.23
2017-03-03T05:28:20.296Z,1011.18
2017-03-03T05:29:29.620Z,1011.21
2017-03-03T05:30:38.503Z,1011.19
2017-03-03T05:31:47.430Z,1011.21
2017-03-03T05:32:56.323Z,1011.21
2017-03-03T05:34:05.643Z,1011.24
2017-03-03T05:35:14.949Z,1011.25
2017-03-03T05:36:23.876Z,1011.25
2017-03-03T05:37:32.761Z,1011.25
2017-03-03T05:38:41.662Z,1011.26
2017-03-03T05:39:50.604Z,1011.22
2017-03-03T05:40:59.487Z,1011.22
2017-03-03T05:42:08.383Z,1011.21
2017-03-03T05:43:17.289Z,1011.23
2017-03-03T05:44:26.171Z,1011.17
2017-03-03T05:45:35.066Z,1011.15
2017-03-03T05:46:43.958Z,1011.15
2017-03-03T05:47:52.859Z,1011.16
2017-03-03T05:49:01.760Z,1011.15
2017-03-03T05:50:11.055Z,1011.11
2017-03-03T05:51:19.943Z,1011.12
2017-03-03T05:52:28.833Z,1011.09
2017-03-03T05:53:37.781Z,1011.12
2017-03-03T05:54:46.671Z,1011.12
2017-03-03T05:55:55.611Z,1011.17
2017-03-03T05:57:04.512Z,1011.12
2017-03-03T05:58:13.394Z,1011.12
2017-03-03T05:59:22.314Z,1011.11
2017-03-03T06:00:31.225Z,1011.09
2017-03-03T06:01:40.527Z,1011.09
2017-03-03T06:02:49.843Z,1011.08
2017-03-03T06:03:58.720Z,1011.04
2017-03-03T06:05:07.629Z,1011.04
2017-03-03T06:06:16.517Z,1010.99
2017-03-03T06:07:25.426Z,1011.03
2017-03-03T06:08:34.303Z,1011.07
2017-03-03T06:09:43.245Z,1011.08
2017-03-03T06:10:52.561Z,1011.13
2017-03-03T06:12:01.879Z,1011.18
2017-03-03T06:13:11.223Z,1011.2
2017-03-03T06:14:20.104Z,1011.19
2017-03-03T06:15:28.984Z,1011.21
2017-03-03T06:16:37.856Z,1011.18
2017-03-03T06:17:46.746Z,1011.2
2017-03-03T06:18:55.635Z,1011.22
2017-03-03T06:20:04.912Z,1011.27
2017-03-03T06:21:13.836Z,1011.22
2017-03-03T06:22:22.749Z,1011.29
2017-03-03T06:23:31.653Z,1011.31
2017-03-03T06:24:40.575Z,1011.27
2017-03-03T06:25:49.477Z,1011.31
2017-03-03T06:26:58.366Z,1011.33
2017-03-03T06:28:07.282Z,1011.34
2017-03-03T06:29:16.193Z,1011.34
2017-03-03T06:30:25.077Z,1011.36
2017-03-03T06:31:33.987Z,1011.38
2017-03-03T06:32:42.885Z,1011.41
2017-03-03T06:33:51.795Z,1011.43
2017-03-03T06:35:00.693Z,1011.45
2017-03-03T06:36:09.587Z,1011.42
2017-03-03T06:37:18.867Z,1011.4
2017-03-03T06:38:27.750Z,1011.35
2017-03-03T06:39:36.643Z,1011.39
2017-03-03T06:40:45.543Z,1011.36
2017-03-03T06:41:54.465Z,1011.44
2017-03-03T06:43:03.346Z,1011.41
2017-03-03T06:44:12.234Z,1011.45
2017-03-03T06:45:21.142Z,1011.43
2017-03-03T06:46:30.033Z,1011.44
2017-03-03T06:47:38.946Z,1011.34
2017-03-03T06:48:47.845Z,1011.38
2017-03-03T06:49:56.784Z,1011.34
2017-03-03T06:51:05.688Z,1011.37
2017-03-03T06:52:14.579Z,1011.31
2017-03-03T06:53:23.486Z,1011.36
2017-03-03T06:54:32.378Z,1011.35
2017-03-03T06:55:41.292Z,1011.36
2017-03-03T06:56:50.187Z,1011.37
2017-03-03T06:57:59.466Z,1011.41
2017-03-03T06:59:08.749Z,1011.37
2017-03-03T07:00:17.677Z,1011.31
2017-03-03T07:01:26.602Z,1011.35
2017-03-03T07:02:35.907Z,1011.32
2017-03-03T07:03:44.784Z,1011.33
2017-03-03T07:04:53.718Z,1011.33
2017-03-03T07:06:02.607Z,1011.33
2017-03-03T07:07:11.486Z,1011.36
2017-03-03T07:08:20.405Z,1011.36
2017-03-03T07:09:29.284Z,1011.35
2017-03-03T07:10:38.215Z,1011.31
2017-03-03T07:11:47.097Z,1011.31
2017-03-03T07:12:55.974Z,1011.34
2017-03-03T07:14:04.933Z,1011.32
2017-03-03T07:15:13.806Z,1011.31
2017-03-03T07:16:22.699Z,1011.3
2017-03-03T07:17:31.613Z,1011.27
2017-03-03T07:18:40.499Z,1011.25
2017-03-03T07:19:49.426Z,1011.29
2017-03-03T07:20:58.308Z,1011.32
2017-03-03T07:22:07.186Z,1011.3
2017-03-03T07:23:16.068Z,1011.26
2017-03-03T07:24:25.007Z,1011.24
2017-03-03T07:25:33.893Z,1011.21
2017-03-03T07:26:42.778Z,1011.27
2017-03-03T07:27:51.687Z,1011.29
2017-03-03T07:29:00.570Z,1011.28
2017-03-03T07:30:09.459Z,1011.28
2017-03-03T07:31:18.378Z,1011.3
2017-03-03T07:32:27.295Z,1011.34
2017-03-03T07:33:36.165Z,1011.27
2017-03-03T07:34:45.058Z,1011.31
2017-03-03T07:35:54.380Z,1011.31
2017-03-03T07:37:03.292Z,1011.35
2017-03-03T07:38:12.193Z,1011.33
2017-03-03T07:39:21.093Z,1011.35
2017-03-03T07:40:29.985Z,1011.36
2017-03-03T07:41:38.877Z,1011.36
2017-03-03T07:42:47.772Z,1011.35
2017-03-03T07:43:56.650Z,1011.37
2017-03-03T07:45:05.540Z,1011.34
2017-03-03T07:46:14.443Z,1011.33
2017-03-03T07:47:23.323Z,1011.39
2017-03-03T07:48:32.222Z,1011.4
2017-03-03T07:49:41.518Z,1011.36
2017-03-03T07:50:50.407Z,1011.34
2017-03-03T07:51:59.737Z,1011.42
2017-03-03T07:53:08.646Z,1011.38
2017-03-03T07:54:17.560Z,1011.38
2017-03-03T07:55:26.861Z,1011.35
2017-03-03T07:56:35.746Z,1011.37
2017-03-03T07:57:44.681Z,1011.44
2017-03-03T07:58:53.581Z,1011.4
2017-03-03T08:00:02.488Z,1011.44
2017-03-03T08:01:11.391Z,1011.44
2017-03-03T08:02:20.276Z,1011.41
2017-03-03T08:03:29.162Z,1011.42
2017-03-03T08:04:38.044Z,1011.36
2017-03-03T08:05:46.932Z,1011.39
2017-03-03T08:06:55.828Z,1011.38
2017-03-03T08:08:04.753Z,1011.44
2017-03-03T08:09:14.067Z,1011.43
2017-03-03T08:10:23.351Z,1011.41
2017-03-03T08:11:32.226Z,1011.42
2017-03-03T08:12:41.116Z,1011.43
2017-03-03T08:13:50.102Z,1011.48
2017-03-03T08:14:59.021Z,1011.43
2017-03-03T08:16:08.305Z,1011.45
2017-03-03T08:17:17.230Z,1011.43
2017-03-03T08:18:26.142Z,1011.46
2017-03-03T08:19:35.026Z,1011.47
2017-03-03T08:20:43.945Z,1011.41
2017-03-03T08:21:53.254Z,1011.49
2017-03-03T08:23:02.165Z,1011.5
2017-03-03T08:24:11.071Z,1011.43
2017-03-03T08:25:19.955Z,1011.42
2017-03-03T08:26:28.833Z,1011.45
2017-03-03T08:27:37.730Z,1011.4
2017-03-03T08:28:46.649Z,1011.4
2017-03-03T08:29:55.545Z,1011.39
2017-03-03T08:31:04.831Z,1011.38
2017-03-03T08:32:13.722Z,1011.39
2017-03-03T08:33:22.603Z,1011.38
2017-03-03T08:34:31.486Z,1011.36
2017-03-03T08:35:40.400Z,1011.37
2017-03-03T08:36:49.726Z,1011.32
2017-03-03T08:37:58.604Z,1011.35
2017-03-03T08:39:07.486Z,1011.35
2017-03-03T08:40:16.397Z,1011.3
2017-03-03T08:41:25.323Z,1011.28
2017-03-03T08:42:34.253Z,1011.23
2017-03-03T08:43:43.166Z,1011.2
2017-03-03T08:44:52.064Z,1011.22
2017-03-03T08:46:01.067Z,1011.15
2017-03-03T08:47:09.969Z,1011.2
2017-03-03T08:48:18.845Z,1011.14
2017-03-03T08:49:27.729Z,1011.16
2017-03-03T08:50:36.643Z,1011.13
2017-03-03T08:51:45.567Z,1011.1
2017-03-03T08:52:54.465Z,1011.16
2017-03-03T08:54:03.366Z,1011.11
2017-03-03T08:55:12.277Z,1011.16
2017-03-03T08:56:21.248Z,1011.08
2017-03-03T08:57:30.155Z,1011.09
2017-03-03T08:58:39.060Z,1011.09
2017-03-03T08:59:47.951Z,1011.12
2017-03-03T09:00:56.833Z,1011.06
2017-03-03T09:02:06.122Z,1011.05
2017-03-03T09:03:15.032Z,1010.97
2017-03-03T09:04:23.926Z,1010.97
2017-03-03T09:05:32.842Z,1010.94
2017-03-03T09:06:41.733Z,1010.86
2017-03-03T09:07:50.624Z,1010.86
2017-03-03T09:08:59.519Z,1010.84
2017-03-03T09:10:08.431Z,1010.77
2017-03-03T09:11:17.340Z,1010.8
2017-03-03T09:12:26.218Z,1010.82
2017-03-03T09:13:35.131Z,1010.69
2017-03-03T09:14:44.051Z,1010.72
2017-03-03T09:15:53.371Z,1010.72
2017-03-03T09:17:02.259Z,1010.66
2017-03-03T09:18:11.184Z,1010.71
2017-03-03T09:19:20.072Z,1010.67
2017-03-03T09:20:28.955Z,1010.68
2017-03-03T09:21:37.852Z,1010.66
2017-03-03T09:22:47.143Z,1010.65
2017-03-03T09:23:56.068Z,1010.64
2017-03-03T09:25:04.947Z,1010.68
2017-03-03T09:26:13.845Z,1010.66
2017-03-03T09:27:22.946Z,1010.68
2017-03-03T09:28:31.844Z,1010.68
2017-03-03T09:29:40.738Z,1010.69
2017-03-03T09:30:49.638Z,1010.65
2017-03-03T09:31:58.533Z,1010.63
2017-03-03T09:33:07.952Z,1010.59
2017-03-03T09:34:17.305Z,1010.6
2017-03-03T09:35:26.203Z,1010.58
2017-03-03T09:36:35.097Z,1010.56
2017-03-03T09:37:44.041Z,1010.55
2017-03-03T09:38:52.953Z,1010.52
2017-03-03T09:40:01.884Z,1010.46
2017-03-03T09:41:10.777Z,1010.47
2017-03-03T09:42:19.714Z,1010.42
2017-03-03T09:43:28.605Z,1010.49
2017-03-03T09:44:37.518Z,1010.43
2017-03-03T09:45:46.415Z,1010.36
2017-03-03T09:46:55.306Z,1010.35
2017-03-03T09:48:04.213Z,1010.36
2017-03-03T09:49:13.192Z,1010.39
2017-03-03T09:50:22.079Z,1010.41
2017-03-03T09:51:30.993Z,1010.45
2017-03-03T09:52:39.933Z,1010.46
2017-03-03T09:53:48.876Z,1010.45
2017-03-03T09:54:57.833Z,1010.43
2017-03-03T09:56:07.270Z,1010.49
2017-03-03T09:57:16.576Z,1010.45
2017-03-03T09:58:25.489Z,1010.43
2017-03-03T09:59:34.398Z,1010.45
2017-03-03T10:00:43.310Z,1010.44
2017-03-03T10:01:52.190Z,1010.46
2017-03-03T10:03:01.106Z,1010.46
2017-03-03T10:04:10.015Z,1010.41
2017-03-03T10:05:18.920Z,1010.46
2017-03-03T10:06:27.831Z,1010.43
2017-03-03T10:07:36.728Z,1010.4
2017-03-03T10:08:45.642Z,1010.34
2017-03-03T10:09:54.561Z,1010.33
2017-03-03T10:11:03.468Z,1010.29
2017-03-03T10:12:12.386Z,1010.28
2017-03-03T10:13:21.277Z,1010.22
2017-03-03T10:14:30.185Z,1010.25
2017-03-03T10:15:39.121Z,1010.25
2017-03-03T10:16:48.020Z,1010.27
2017-03-03T10:17:56.928Z,1010.34
2017-03-03T10:19:05.828Z,1010.34
2017-03-03T10:20:14.729Z,1010.34
2017-03-03T10:21:23.640Z,1010.34
2017-03-03T10:22:32.559Z,1010.37
2017-03-03T10:23:41.439Z,1010.32
2017-03-03T10:24:50.337Z,1010.17
2017-03-03T10:25:59.643Z,1010.07
2017-03-03T10:27:08.559Z,1009.96
2017-03-03T10:28:17.491Z,1009.9
2017-03-03T10:29:26.404Z,1009.83
2017-03-03T10:30:35.291Z,1009.89
2017-03-03T10:31:44.225Z,1009.89
2017-03-03T10:32:53.106Z,1009.93
2017-03-03T10:34:01.989Z,1009.98
2017-03-03T10:35:10.872Z,1010.03
2017-03-03T10:36:19.780Z,1009.95
2017-03-03T10:37:28.667Z,1010.07
2017-03-03T10:38:37.556Z,1010.11
2017-03-03T10:39:46.433Z,1010.12
2017-03-03T10:40:55.333Z,1010.08
2017-03-03T10:42:04.261Z,1010
2017-03-03T10:43:13.141Z,1009.92
2017-03-03T10:44:22.018Z,1009.93
2017-03-03T10:45:30.929Z,1010
2017-03-03T10:46:39.824Z,1010.01
2017-03-03T10:47:48.705Z,1010.1
2017-03-03T10:48:57.599Z,1010.01
2017-03-03T10:50:06.485Z,1010.04
2017-03-03T10:51:15.368Z,1010.02
2017-03-03T10:52:24.288Z,1009.95
2017-03-03T10:53:33.182Z,1009.92
2017-03-03T10:54:42.079Z,1009.93
2017-03-03T10:55:50.969Z,1009.83
2017-03-03T10:56:59.847Z,1009.8
2017-03-03T10:58:08.743Z,1009.74
2017-03-03T10:59:17.631Z,1009.78
2017-03-03T11:00:26.527Z,1009.77
2017-03-03T11:01:35.421Z,1009.75
2017-03-03T11:02:44.339Z,1009.73
2017-03-03T11:03:53.242Z,1009.66
2017-03-03T11:05:02.139Z,1009.65
2017-03-03T11:06:11.050Z,1009.62
2017-03-03T11:07:19.937Z,1009.58
2017-03-03T11:08:28.829Z,1009.65
2017-03-03T11:09:37.715Z,1009.6
2017-03-03T11:10:47.021Z,1009.6
2017-03-03T11:11:55.916Z,1009.59
2017-03-03T11:13:04.821Z,1009.56
2017-03-03T11:14:13.732Z,1009.57
2017-03-03T11:15:22.614Z,1009.53
2017-03-03T11:16:31.916Z,1009.49
2017-03-03T11:17:40.839Z,1009.47
2017-03-03T11:18:49.722Z,1009.47
2017-03-03T11:19:58.614Z,1009.49
2017-03-03T11:21:07.550Z,1009.47
2017-03-03T11:22:16.436Z,1009.38
2017-03-03T11:23:25.344Z,1009.43
2017-03-03T11:24:34.247Z,1009.35
2017-03-03T11:25:43.126Z,1009.39
2017-03-03T11:26:52.024Z,1009.36
2017-03-03T11:28:00.916Z,1009.35
2017-03-03T11:29:09.805Z,1009.26
2017-03-03T11:30:18.685Z,1009.25
2017-03-03T11:31:27.572Z,1009.28
2017-03-03T11:32:36.453Z,1009.22
2017-03-03T11:33:45.340Z,1009.16
2017-03-03T11:34:54.247Z,1009.14
2017-03-03T11:36:03.167Z,1009.06
2017-03-03T11:37:12.092Z,1009.05
2017-03-03T11:38:20.994Z,1009.05
2017-03-03T11:39:29.879Z,1009.05
2017-03-03T11:40:38.784Z,1008.98
2017-03-03T11:41:47.723Z,1009.01
2017-03-03T11:42:56.620Z,1009
2017-03-03T11:44:05.536Z,1008.99
2017-03-03T11:45:14.424Z,1008.9
2017-03-03T11:46:23.312Z,1008.86
2017-03-03T11:47:32.200Z,1008.89
2017-03-03T11:48:41.091Z,1008.81
2017-03-03T11:49:50.375Z,1008.76
2017-03-03T11:50:59.685Z,1008.78
2017-03-03T11:52:08.977Z,1008.76
2017-03-03T11:53:17.869Z,1008.74
2017-03-03T11:54:26.755Z,1008.68
2017-03-03T11:55:35.633Z,1008.7
2017-03-03T11:56:44.509Z,1008.66
2017-03-03T11:57:54.227Z,1008.63
2017-03-03T11:59:03.107Z,1008.62
2017-03-03T12:00:12.963Z,1008.65
2017-03-03T12:01:23.961Z,1008.52
2017-03-03T12:02:32.882Z,1008.49
2017-03-03T12:03:41.805Z,1008.5
2017-03-03T12:04:50.692Z,1008.45
2017-03-03T12:05:59.601Z,1008.47
2017-03-03T12:07:08.527Z,1008.42
2017-03-03T12:08:17.429Z,1008.45
2017-03-03T12:09:26.306Z,1008.43
2017-03-03T12:10:35.225Z,1008.36
2017-03-03T12:11:44.108Z,1008.33
2017-03-03T12:12:53.405Z,1008.29
2017-03-03T12:14:02.315Z,1008.28
2017-03-03T12:15:11.210Z,1008.3
2017-03-03T12:16:20.090Z,1008.28
2017-03-03T12:17:29.007Z,1008.27
2017-03-03T12:18:37.919Z,1008.26
2017-03-03T12:19:46.827Z,1008.28
2017-03-03T12:20:55.715Z,1008.24
2017-03-03T12:22:04.605Z,1008.18
2017-03-03T12:23:13.503Z,1008.21
2017-03-03T12:24:22.434Z,1008.18
2017-03-03T12:25:31.744Z,1008.17
2017-03-03T12:26:41.451Z,1008.16
2017-03-03T12:27:50.378Z,1008.15
2017-03-03T12:28:59.683Z,1008.16
2017-03-03T12:30:08.612Z,1008.16
2017-03-03T12:31:17.547Z,1008.15
2017-03-03T12:32:26.867Z,1008.18
2017-03-03T12:33:35.751Z,1008.12
2017-03-03T12:34:44.668Z,1008.1
2017-03-03T12:35:53.577Z,1008.03
2017-03-03T12:37:02.463Z,1008.05
2017-03-03T12:38:11.377Z,1008.05
2017-03-03T12:39:20.312Z,1008.06
2017-03-03T12:40:29.247Z,1008.02
2017-03-03T12:41:38.163Z,1007.94
2017-03-03T12:42:47.063Z,1007.95
2017-03-03T12:43:55.967Z,1007.93
2017-03-03T12:45:04.864Z,1007.98
2017-03-03T12:46:13.738Z,1007.95
2017-03-03T12:47:22.618Z,1007.94
2017-03-03T12:48:31.524Z,1007.97
2017-03-03T12:49:40.403Z,1007.91
2017-03-03T12:50:49.293Z,1007.91
2017-03-03T12:51:58.199Z,1007.89
2017-03-03T12:53:07.157Z,1007.88
2017-03-03T12:54:16.079Z,1007.84
2017-03-03T12:55:25.002Z,1007.85
2017-03-03T12:56:34.288Z,1007.82
2017-03-03T12:57:43.225Z,1007.85
2017-03-03T12:58:52.145Z,1007.86
2017-03-03T13:00:01.035Z,1007.82
2017-03-03T13:01:09.936Z,1007.8
2017-03-03T13:02:18.823Z,1007.74
2017-03-03T13:03:27.760Z,1007.74
2017-03-03T13:04:36.668Z,1007.77
2017-03-03T13:05:45.548Z,1007.74
2017-03-03T13:06:54.463Z,1007.64
2017-03-03T13:08:03.763Z,1007.69
2017-03-03T13:09:12.687Z,1007.72
2017-03-03T13:10:21.598Z,1007.69
2017-03-03T13:11:30.545Z,1007.66
2017-03-03T13:12:39.429Z,1007.58
2017-03-03T13:13:48.309Z,1007.6
2017-03-03T13:14:57.193Z,1007.58
2017-03-03T13:16:06.478Z,1007.48
2017-03-03T13:17:15.385Z,1007.45
2017-03-03T13:18:24.313Z,1007.41
2017-03-03T13:19:33.239Z,1007.39
2017-03-03T13:20:42.132Z,1007.42
2017-03-03T13:21:51.014Z,1007.44
2017-03-03T13:22:59.907Z,1007.43
2017-03-03T13:24:08.798Z,1007.32
2017-03-03T13:25:17.700Z,1007.3
2017-03-03T13:26:26.580Z,1007.31
2017-03-03T13:27:35.866Z,1007.24
2017-03-03T13:28:44.752Z,1007.24
2017-03-03T13:29:53.721Z,1007.23
2017-03-03T13:31:02.624Z,1007.18
2017-03-03T13:32:11.557Z,1007.16
2017-03-03T13:33:20.457Z,1007.14
2017-03-03T13:34:29.362Z,1007.14
2017-03-03T13:35:38.287Z,1007.16
2017-03-03T13:36:47.162Z,1007.11
2017-03-03T13:37:56.063Z,1007.12
2017-03-03T13:39:04.953Z,1007.1
2017-03-03T13:40:13.852Z,1007.16
2017-03-03T13:41:22.755Z,1007.15
2017-03-03T13:42:31.635Z,1007.15
2017-03-03T13:43:40.526Z,1007.09
2017-03-03T13:44:49.413Z,1007.09
2017-03-03T13:45:58.340Z,1007.1
2017-03-03T13:47:07.652Z,1007.1
2017-03-03T13:48:16.546Z,1007.05
2017-03-03T13:49:25.424Z,1007.01
2017-03-03T13:50:34.312Z,1007
2017-03-03T13:51:43.191Z,1007.05
2017-03-03T13:52:52.073Z,1007.06
2017-03-03T13:54:01.390Z,1007.02
2017-03-03T13:55:10.276Z,1007.05
2017-03-03T13:56:19.161Z,1007
2017-03-03T13:57:28.083Z,1007.02